sensor_id;sensor_type;location;lat;lon;timestamp;P1;durP1;ratioP1;P2;durP2;ratioP2
61741;SDS011;47650;49.848;9.620;2024-03-08T00:00:57;31.02;;;22.73;;
61741;SDS011;47650;49.848;9.620;2024-03-08T00:03:24;31.90;;;22.52;;
61741;SDS011;47650;49.848;9.620;2024-03-08T00:10:42;33.13;;;23.83;;
61741;SDS011;47650;49.848;9.620;2024-03-08T00:13:09;33.63;;;23.60;;
61741;SDS011;47650;49.848;9.620;2024-03-08T00:15:35;32.97;;;23.13;;
61741;SDS011;47650;49.848;9.620;2024-03-08T00:18:02;34.83;;;23.58;;
61741;SDS011;47650;49.848;9.620;2024-03-08T00:20:27;33.13;;;23.75;;
61741;SDS011;47650;49.848;9.620;2024-03-08T00:22:52;33.75;;;24.05;;
61741;SDS011;47650;49.848;9.620;2024-03-08T00:25:22;32.75;;;24.17;;
61741;SDS011;47650;49.848;9.620;2024-03-08T00:27:55;34.75;;;24.08;;
61741;SDS011;47650;49.848;9.620;2024-03-08T00:30:24;36.85;;;24.13;;
61741;SDS011;47650;49.848;9.620;2024-03-08T00:32:51;35.70;;;24.38;;
61741;SDS011;47650;49.848;9.620;2024-03-08T00:35:18;35.97;;;24.83;;
61741;SDS011;47650;49.848;9.620;2024-03-08T00:37:43;35.40;;;23.83;;
61741;SDS011;47650;49.848;9.620;2024-03-08T00:40:12;33.90;;;24.00;;
61741;SDS011;47650;49.848;9.620;2024-03-08T00:42:37;35.08;;;25.10;;
61741;SDS011;47650;49.848;9.620;2024-03-08T00:45:06;34.50;;;22.92;;
61741;SDS011;47650;49.848;9.620;2024-03-08T00:47:35;33.40;;;23.85;;
61741;SDS011;47650;49.848;9.620;2024-03-08T00:50:00;36.53;;;24.52;;
61741;SDS011;47650;49.848;9.620;2024-03-08T00:52:29;37.60;;;25.70;;
61741;SDS011;47650;49.848;9.620;2024-03-08T00:54:54;36.60;;;24.88;;
61741;SDS011;47650;49.848;9.620;2024-03-08T00:57:20;33.13;;;24.75;;
61741;SDS011;47650;49.848;9.620;2024-03-08T00:59:46;36.78;;;25.38;;
61741;SDS011;47650;49.848;9.620;2024-03-08T01:02:12;37.47;;;25.00;;
61741;SDS011;47650;49.848;9.620;2024-03-08T01:04:38;37.33;;;25.92;;
61741;SDS011;47650;49.848;9.620;2024-03-08T01:07:04;40.35;;;25.42;;
61741;SDS011;47650;49.848;9.620;2024-03-08T01:09:30;36.22;;;25.75;;
61741;SDS011;47650;49.848;9.620;2024-03-08T01:11:57;38.13;;;24.88;;
61741;SDS011;47650;49.848;9.620;2024-03-08T01:14:24;34.00;;;24.65;;
61741;SDS011;47650;49.848;9.620;2024-03-08T01:16:53;37.92;;;24.70;;
61741;SDS011;47650;49.848;9.620;2024-03-08T01:19:19;37.10;;;25.45;;
61741;SDS011;47650;49.848;9.620;2024-03-08T01:21:45;43.28;;;26.15;;
61741;SDS011;47650;49.848;9.620;2024-03-08T01:24:11;37.88;;;25.27;;
61741;SDS011;47650;49.848;9.620;2024-03-08T01:26:40;40.95;;;26.55;;
61741;SDS011;47650;49.848;9.620;2024-03-08T01:29:08;40.80;;;26.00;;
61741;SDS011;47650;49.848;9.620;2024-03-08T01:31:34;40.70;;;27.13;;
61741;SDS011;47650;49.848;9.620;2024-03-08T01:34:01;41.05;;;26.33;;
61741;SDS011;47650;49.848;9.620;2024-03-08T01:36:26;44.47;;;27.23;;
61741;SDS011;47650;49.848;9.620;2024-03-08T01:38:52;46.95;;;28.30;;
61741;SDS011;47650;49.848;9.620;2024-03-08T01:41:18;42.38;;;26.48;;
61741;SDS011;47650;49.848;9.620;2024-03-08T01:43:44;42.88;;;26.58;;
61741;SDS011;47650;49.848;9.620;2024-03-08T01:46:11;45.63;;;27.25;;
61741;SDS011;47650;49.848;9.620;2024-03-08T01:48:41;43.38;;;27.00;;
61741;SDS011;47650;49.848;9.620;2024-03-08T01:51:07;45.72;;;28.10;;
61741;SDS011;47650;49.848;9.620;2024-03-08T01:53:34;41.50;;;27.08;;
61741;SDS011;47650;49.848;9.620;2024-03-08T01:56:00;45.10;;;27.92;;
61741;SDS011;47650;49.848;9.620;2024-03-08T01:58:28;46.80;;;28.95;;
61741;SDS011;47650;49.848;9.620;2024-03-08T02:00:54;46.47;;;28.33;;
61741;SDS011;47650;49.848;9.620;2024-03-08T02:03:22;44.28;;;27.38;;
61741;SDS011;47650;49.848;9.620;2024-03-08T02:05:49;45.42;;;27.42;;
61741;SDS011;47650;49.848;9.620;2024-03-08T02:08:17;46.45;;;29.73;;
61741;SDS011;47650;49.848;9.620;2024-03-08T02:10:44;44.58;;;27.77;;
61741;SDS011;47650;49.848;9.620;2024-03-08T02:13:11;45.65;;;28.77;;
61741;SDS011;47650;49.848;9.620;2024-03-08T02:18:25;51.80;;;29.90;;
61741;SDS011;47650;49.848;9.620;2024-03-08T02:20:54;44.63;;;27.75;;
61741;SDS011;47650;49.848;9.620;2024-03-08T02:23:29;47.63;;;29.92;;
61741;SDS011;47650;49.848;9.620;2024-03-08T02:25:54;45.83;;;28.05;;
61741;SDS011;47650;49.848;9.620;2024-03-08T02:28:21;43.97;;;29.38;;
61741;SDS011;47650;49.848;9.620;2024-03-08T02:30:47;50.90;;;29.73;;
61741;SDS011;47650;49.848;9.620;2024-03-08T02:33:16;45.28;;;28.38;;
61741;SDS011;47650;49.848;9.620;2024-03-08T02:35:43;44.40;;;28.52;;
61741;SDS011;47650;49.848;9.620;2024-03-08T02:38:16;46.42;;;28.88;;
61741;SDS011;47650;49.848;9.620;2024-03-08T02:40:44;48.13;;;28.58;;
61741;SDS011;47650;49.848;9.620;2024-03-08T02:43:14;44.83;;;28.13;;
61741;SDS011;47650;49.848;9.620;2024-03-08T02:45:41;43.97;;;28.25;;
61741;SDS011;47650;49.848;9.620;2024-03-08T02:48:08;48.08;;;29.95;;
61741;SDS011;47650;49.848;9.620;2024-03-08T02:50:36;44.83;;;28.08;;
61741;SDS011;47650;49.848;9.620;2024-03-08T02:53:02;46.08;;;27.88;;
61741;SDS011;47650;49.848;9.620;2024-03-08T02:55:27;47.22;;;28.05;;
61741;SDS011;47650;49.848;9.620;2024-03-08T02:57:53;48.40;;;30.20;;
61741;SDS011;47650;49.848;9.620;2024-03-08T03:00:23;50.83;;;29.92;;
61741;SDS011;47650;49.848;9.620;2024-03-08T03:02:50;50.08;;;30.35;;
61741;SDS011;47650;49.848;9.620;2024-03-08T03:05:22;48.05;;;29.48;;
61741;SDS011;47650;49.848;9.620;2024-03-08T03:07:53;46.75;;;29.38;;
61741;SDS011;47650;49.848;9.620;2024-03-08T03:10:23;41.97;;;27.48;;
61741;SDS011;47650;49.848;9.620;2024-03-08T03:12:50;50.90;;;29.92;;
61741;SDS011;47650;49.848;9.620;2024-03-08T03:15:15;46.78;;;29.25;;
61741;SDS011;47650;49.848;9.620;2024-03-08T03:17:47;50.00;;;29.65;;
61741;SDS011;47650;49.848;9.620;2024-03-08T03:20:15;47.38;;;29.50;;
61741;SDS011;47650;49.848;9.620;2024-03-08T03:22:48;47.88;;;29.20;;
61741;SDS011;47650;49.848;9.620;2024-03-08T03:25:17;48.95;;;27.75;;
61741;SDS011;47650;49.848;9.620;2024-03-08T03:27:48;45.03;;;29.30;;
61741;SDS011;47650;49.848;9.620;2024-03-08T03:30:14;46.63;;;29.55;;
61741;SDS011;47650;49.848;9.620;2024-03-08T03:32:46;47.88;;;28.77;;
61741;SDS011;47650;49.848;9.620;2024-03-08T03:35:17;55.83;;;31.80;;
61741;SDS011;47650;49.848;9.620;2024-03-08T03:37:43;55.40;;;32.35;;
61741;SDS011;47650;49.848;9.620;2024-03-08T03:40:36;51.83;;;30.48;;
61741;SDS011;47650;49.848;9.620;2024-03-08T03:43:03;52.97;;;31.55;;
61741;SDS011;47650;49.848;9.620;2024-03-08T03:45:29;55.03;;;29.23;;
61741;SDS011;47650;49.848;9.620;2024-03-08T03:47:59;58.33;;;31.38;;
61741;SDS011;47650;49.848;9.620;2024-03-08T03:50:27;50.97;;;30.98;;
61741;SDS011;47650;49.848;9.620;2024-03-08T03:52:53;52.47;;;30.23;;
61741;SDS011;47650;49.848;9.620;2024-03-08T03:55:22;59.00;;;31.90;;
61741;SDS011;47650;49.848;9.620;2024-03-08T03:57:48;56.17;;;31.92;;
61741;SDS011;47650;49.848;9.620;2024-03-08T04:00:14;52.88;;;31.25;;
61741;SDS011;47650;49.848;9.620;2024-03-08T04:02:40;50.53;;;30.75;;
61741;SDS011;47650;49.848;9.620;2024-03-08T04:05:07;56.72;;;31.80;;
61741;SDS011;47650;49.848;9.620;2024-03-08T04:07:33;55.72;;;31.23;;
61741;SDS011;47650;49.848;9.620;2024-03-08T04:10:00;53.42;;;30.15;;
61741;SDS011;47650;49.848;9.620;2024-03-08T04:12:32;52.88;;;30.65;;
61741;SDS011;47650;49.848;9.620;2024-03-08T04:14:57;58.63;;;32.28;;
61741;SDS011;47650;49.848;9.620;2024-03-08T04:17:24;58.88;;;31.65;;
61741;SDS011;47650;49.848;9.620;2024-03-08T04:19:49;54.40;;;30.85;;
61741;SDS011;47650;49.848;9.620;2024-03-08T04:22:19;54.38;;;30.13;;
61741;SDS011;47650;49.848;9.620;2024-03-08T04:24:45;56.22;;;32.70;;
61741;SDS011;47650;49.848;9.620;2024-03-08T04:27:12;58.53;;;31.85;;
61741;SDS011;47650;49.848;9.620;2024-03-08T04:29:55;49.20;;;26.08;;
61741;SDS011;47650;49.848;9.620;2024-03-08T04:32:31;60.33;;;31.67;;
61741;SDS011;47650;49.848;9.620;2024-03-08T04:34:58;56.55;;;32.03;;
61741;SDS011;47650;49.848;9.620;2024-03-08T04:37:23;55.38;;;32.83;;
61741;SDS011;47650;49.848;9.620;2024-03-08T04:39:50;57.85;;;33.33;;
61741;SDS011;47650;49.848;9.620;2024-03-08T04:42:15;52.35;;;33.05;;
61741;SDS011;47650;49.848;9.620;2024-03-08T04:44:42;56.40;;;34.13;;
61741;SDS011;47650;49.848;9.620;2024-03-08T04:47:08;61.08;;;32.22;;
61741;SDS011;47650;49.848;9.620;2024-03-08T04:49:35;55.03;;;31.67;;
61741;SDS011;47650;49.848;9.620;2024-03-08T04:52:01;55.30;;;32.40;;
61741;SDS011;47650;49.848;9.620;2024-03-08T04:54:37;63.35;;;34.15;;
61741;SDS011;47650;49.848;9.620;2024-03-08T04:57:03;57.55;;;32.67;;
61741;SDS011;47650;49.848;9.620;2024-03-08T04:59:30;53.28;;;31.73;;
61741;SDS011;47650;49.848;9.620;2024-03-08T05:01:58;55.90;;;32.00;;
61741;SDS011;47650;49.848;9.620;2024-03-08T05:04:25;61.63;;;32.80;;
61741;SDS011;47650;49.848;9.620;2024-03-08T05:06:50;57.88;;;32.63;;
61741;SDS011;47650;49.848;9.620;2024-03-08T05:09:15;61.25;;;33.10;;
61741;SDS011;47650;49.848;9.620;2024-03-08T05:11:44;65.93;;;34.25;;
61741;SDS011;47650;49.848;9.620;2024-03-08T05:14:10;67.95;;;35.13;;
61741;SDS011;47650;49.848;9.620;2024-03-08T05:16:37;66.65;;;35.22;;
61741;SDS011;47650;49.848;9.620;2024-03-08T05:19:02;57.65;;;32.90;;
61741;SDS011;47650;49.848;9.620;2024-03-08T05:21:28;57.85;;;33.65;;
61741;SDS011;47650;49.848;9.620;2024-03-08T05:23:54;68.22;;;35.67;;
61741;SDS011;47650;49.848;9.620;2024-03-08T05:26:19;67.07;;;34.15;;
61741;SDS011;47650;49.848;9.620;2024-03-08T05:28:45;63.15;;;35.67;;
61741;SDS011;47650;49.848;9.620;2024-03-08T05:31:17;62.92;;;35.83;;
61741;SDS011;47650;49.848;9.620;2024-03-08T05:33:48;68.60;;;36.10;;
61741;SDS011;47650;49.848;9.620;2024-03-08T05:36:15;63.42;;;34.25;;
61741;SDS011;47650;49.848;9.620;2024-03-08T05:38:43;62.88;;;35.97;;
61741;SDS011;47650;49.848;9.620;2024-03-08T05:41:09;62.80;;;35.25;;
61741;SDS011;47650;49.848;9.620;2024-03-08T05:43:36;65.65;;;35.63;;
61741;SDS011;47650;49.848;9.620;2024-03-08T05:46:02;60.10;;;34.92;;
61741;SDS011;47650;49.848;9.620;2024-03-08T05:48:29;63.17;;;36.03;;
61741;SDS011;47650;49.848;9.620;2024-03-08T05:50:57;68.85;;;37.45;;
61741;SDS011;47650;49.848;9.620;2024-03-08T05:53:22;66.88;;;38.35;;
61741;SDS011;47650;49.848;9.620;2024-03-08T05:55:47;66.15;;;38.50;;
61741;SDS011;47650;49.848;9.620;2024-03-08T05:58:14;68.65;;;38.03;;
61741;SDS011;47650;49.848;9.620;2024-03-08T06:00:39;67.82;;;37.50;;
61741;SDS011;47650;49.848;9.620;2024-03-08T06:03:04;62.03;;;35.65;;
61741;SDS011;47650;49.848;9.620;2024-03-08T06:05:30;61.97;;;35.42;;
61741;SDS011;47650;49.848;9.620;2024-03-08T06:07:55;56.85;;;32.80;;
61741;SDS011;47650;49.848;9.620;2024-03-08T06:10:21;58.45;;;32.78;;
61741;SDS011;47650;49.848;9.620;2024-03-08T06:12:46;65.50;;;37.55;;
61741;SDS011;47650;49.848;9.620;2024-03-08T06:15:12;69.95;;;38.83;;
61741;SDS011;47650;49.848;9.620;2024-03-08T06:17:41;59.47;;;35.88;;
61741;SDS011;47650;49.848;9.620;2024-03-08T06:20:06;76.57;;;37.03;;
61741;SDS011;47650;49.848;9.620;2024-03-08T06:22:36;58.97;;;33.72;;
61741;SDS011;47650;49.848;9.620;2024-03-08T06:25:08;56.80;;;33.97;;
61741;SDS011;47650;49.848;9.620;2024-03-08T06:27:33;56.85;;;33.58;;
61741;SDS011;47650;49.848;9.620;2024-03-08T06:29:59;57.38;;;33.05;;
61741;SDS011;47650;49.848;9.620;2024-03-08T06:32:25;58.30;;;35.08;;
61741;SDS011;47650;49.848;9.620;2024-03-08T06:34:51;60.85;;;33.97;;
61741;SDS011;47650;49.848;9.620;2024-03-08T06:37:17;54.33;;;33.17;;
61741;SDS011;47650;49.848;9.620;2024-03-08T06:39:46;54.78;;;32.83;;
61741;SDS011;47650;49.848;9.620;2024-03-08T06:42:17;55.97;;;32.40;;
61741;SDS011;47650;49.848;9.620;2024-03-08T06:44:43;57.47;;;33.92;;
61741;SDS011;47650;49.848;9.620;2024-03-08T06:47:14;53.20;;;32.63;;
61741;SDS011;47650;49.848;9.620;2024-03-08T06:49:41;59.75;;;35.40;;
61741;SDS011;47650;49.848;9.620;2024-03-08T06:52:13;57.40;;;32.78;;
61741;SDS011;47650;49.848;9.620;2024-03-08T06:54:44;57.88;;;33.72;;
61741;SDS011;47650;49.848;9.620;2024-03-08T06:57:11;53.30;;;33.65;;
61741;SDS011;47650;49.848;9.620;2024-03-08T06:59:36;63.35;;;35.38;;
61741;SDS011;47650;49.848;9.620;2024-03-08T07:04:35;48.75;;;31.13;;
61741;SDS011;47650;49.848;9.620;2024-03-08T07:07:03;54.08;;;34.60;;
61741;SDS011;47650;49.848;9.620;2024-03-08T07:09:30;52.03;;;32.50;;
61741;SDS011;47650;49.848;9.620;2024-03-08T07:11:55;58.33;;;34.70;;
61741;SDS011;47650;49.848;9.620;2024-03-08T07:14:23;59.97;;;34.25;;
61741;SDS011;47650;49.848;9.620;2024-03-08T07:16:49;50.03;;;32.50;;
61741;SDS011;47650;49.848;9.620;2024-03-08T07:19:15;55.20;;;35.10;;
61741;SDS011;47650;49.848;9.620;2024-03-08T07:21:41;46.35;;;30.73;;
61741;SDS011;47650;49.848;9.620;2024-03-08T07:24:07;51.78;;;31.40;;
61741;SDS011;47650;49.848;9.620;2024-03-08T07:27:16;42.90;;;29.58;;
61741;SDS011;47650;49.848;9.620;2024-03-08T07:29:43;47.20;;;32.45;;
61741;SDS011;47650;49.848;9.620;2024-03-08T07:32:09;41.35;;;27.35;;
61741;SDS011;47650;49.848;9.620;2024-03-08T07:34:37;42.90;;;27.00;;
61741;SDS011;47650;49.848;9.620;2024-03-08T07:37:02;39.55;;;28.67;;
61741;SDS011;47650;49.848;9.620;2024-03-08T07:39:29;38.15;;;27.98;;
61741;SDS011;47650;49.848;9.620;2024-03-08T07:41:54;39.17;;;27.85;;
61741;SDS011;47650;49.848;9.620;2024-03-08T07:44:20;42.45;;;29.63;;
61741;SDS011;47650;49.848;9.620;2024-03-08T07:46:50;37.72;;;28.20;;
61741;SDS011;47650;49.848;9.620;2024-03-08T07:49:15;33.33;;;25.58;;
61741;SDS011;47650;49.848;9.620;2024-03-08T07:51:47;32.97;;;24.05;;
61741;SDS011;47650;49.848;9.620;2024-03-08T07:54:14;32.78;;;22.85;;
61741;SDS011;47650;49.848;9.620;2024-03-08T07:56:41;27.42;;;21.80;;
61741;SDS011;47650;49.848;9.620;2024-03-08T07:59:07;30.13;;;22.17;;
61741;SDS011;47650;49.848;9.620;2024-03-08T08:01:32;32.47;;;20.90;;
61741;SDS011;47650;49.848;9.620;2024-03-08T08:03:58;25.30;;;20.60;;
61741;SDS011;47650;49.848;9.620;2024-03-08T08:06:24;26.70;;;21.58;;
61741;SDS011;47650;49.848;9.620;2024-03-08T08:08:51;24.25;;;21.60;;
61741;SDS011;47650;49.848;9.620;2024-03-08T08:11:22;24.55;;;20.85;;
61741;SDS011;47650;49.848;9.620;2024-03-08T08:13:47;22.77;;;19.77;;
61741;SDS011;47650;49.848;9.620;2024-03-08T08:16:13;24.88;;;21.58;;
61741;SDS011;47650;49.848;9.620;2024-03-08T08:18:39;26.38;;;21.17;;
61741;SDS011;47650;49.848;9.620;2024-03-08T08:21:06;23.25;;;20.77;;
61741;SDS011;47650;49.848;9.620;2024-03-08T08:23:32;23.02;;;20.73;;
61741;SDS011;47650;49.848;9.620;2024-03-08T08:25:58;23.08;;;20.65;;
61741;SDS011;47650;49.848;9.620;2024-03-08T08:28:24;22.98;;;20.50;;
61741;SDS011;47650;49.848;9.620;2024-03-08T08:30:50;23.80;;;21.40;;
61741;SDS011;47650;49.848;9.620;2024-03-08T08:33:16;23.02;;;20.42;;
61741;SDS011;47650;49.848;9.620;2024-03-08T08:35:41;22.60;;;20.33;;
61741;SDS011;47650;49.848;9.620;2024-03-08T08:38:07;23.50;;;21.17;;
61741;SDS011;47650;49.848;9.620;2024-03-08T08:40:33;23.30;;;20.95;;
61741;SDS011;47650;49.848;9.620;2024-03-08T08:43:06;23.92;;;21.42;;
61741;SDS011;47650;49.848;9.620;2024-03-08T08:45:32;24.63;;;22.33;;
61741;SDS011;47650;49.848;9.620;2024-03-08T08:47:59;23.98;;;21.52;;
61741;SDS011;47650;49.848;9.620;2024-03-08T08:50:25;23.92;;;21.42;;
61741;SDS011;47650;49.848;9.620;2024-03-08T08:52:52;26.63;;;24.08;;
61741;SDS011;47650;49.848;9.620;2024-03-08T08:55:18;30.10;;;27.33;;
61741;SDS011;47650;49.848;9.620;2024-03-08T08:57:47;24.95;;;22.75;;
61741;SDS011;47650;49.848;9.620;2024-03-08T09:00:12;35.85;;;33.05;;
61741;SDS011;47650;49.848;9.620;2024-03-08T09:02:40;27.23;;;24.73;;
61741;SDS011;47650;49.848;9.620;2024-03-08T09:05:08;29.92;;;27.40;;
61741;SDS011;47650;49.848;9.620;2024-03-08T09:07:35;38.92;;;36.03;;
61741;SDS011;47650;49.848;9.620;2024-03-08T09:10:03;31.48;;;28.90;;
61741;SDS011;47650;49.848;9.620;2024-03-08T09:12:28;26.52;;;24.02;;
61741;SDS011;47650;49.848;9.620;2024-03-08T09:14:54;24.60;;;22.30;;
61741;SDS011;47650;49.848;9.620;2024-03-08T09:17:19;25.50;;;23.15;;
61741;SDS011;47650;49.848;9.620;2024-03-08T09:19:46;23.27;;;20.98;;
61741;SDS011;47650;49.848;9.620;2024-03-08T09:22:12;29.50;;;27.00;;
61741;SDS011;47650;49.848;9.620;2024-03-08T09:24:39;24.80;;;22.60;;
61741;SDS011;47650;49.848;9.620;2024-03-08T09:27:05;23.67;;;21.52;;
61741;SDS011;47650;49.848;9.620;2024-03-08T09:29:30;24.45;;;22.25;;
61741;SDS011;47650;49.848;9.620;2024-03-08T09:31:56;24.13;;;21.92;;
61741;SDS011;47650;49.848;9.620;2024-03-08T09:34:21;23.15;;;20.95;;
61741;SDS011;47650;49.848;9.620;2024-03-08T09:36:47;22.73;;;20.70;;
61741;SDS011;47650;49.848;9.620;2024-03-08T09:39:12;22.17;;;20.17;;
61741;SDS011;47650;49.848;9.620;2024-03-08T09:41:44;21.73;;;19.73;;
61741;SDS011;47650;49.848;9.620;2024-03-08T09:44:15;23.02;;;20.83;;
61741;SDS011;47650;49.848;9.620;2024-03-08T09:46:41;22.27;;;20.25;;
61741;SDS011;47650;49.848;9.620;2024-03-08T09:49:07;22.95;;;20.95;;
61741;SDS011;47650;49.848;9.620;2024-03-08T09:51:33;26.23;;;23.83;;
61741;SDS011;47650;49.848;9.620;2024-03-08T09:54:01;22.42;;;20.42;;
61741;SDS011;47650;49.848;9.620;2024-03-08T09:56:32;21.50;;;19.60;;
61741;SDS011;47650;49.848;9.620;2024-03-08T09:58:58;24.05;;;22.02;;
61741;SDS011;47650;49.848;9.620;2024-03-08T10:01:42;22.20;;;19.80;;
61741;SDS011;47650;49.848;9.620;2024-03-08T10:04:08;26.55;;;24.13;;
61741;SDS011;47650;49.848;9.620;2024-03-08T10:06:35;20.85;;;18.80;;
61741;SDS011;47650;49.848;9.620;2024-03-08T10:09:01;20.75;;;18.85;;
61741;SDS011;47650;49.848;9.620;2024-03-08T10:11:26;23.20;;;21.20;;
61741;SDS011;47650;49.848;9.620;2024-03-08T10:13:51;21.15;;;18.85;;
61741;SDS011;47650;49.848;9.620;2024-03-08T10:16:17;27.35;;;24.92;;
61741;SDS011;47650;49.848;9.620;2024-03-08T10:18:45;20.83;;;18.83;;
61741;SDS011;47650;49.848;9.620;2024-03-08T10:21:11;21.27;;;19.15;;
61741;SDS011;47650;49.848;9.620;2024-03-08T10:23:45;20.75;;;18.52;;
61741;SDS011;47650;49.848;9.620;2024-03-08T10:26:13;22.35;;;19.98;;
61741;SDS011;47650;49.848;9.620;2024-03-08T10:28:42;21.52;;;19.33;;
61741;SDS011;47650;49.848;9.620;2024-03-08T10:31:18;22.13;;;20.00;;
61741;SDS011;47650;49.848;9.620;2024-03-08T10:33:44;19.65;;;17.55;;
61741;SDS011;47650;49.848;9.620;2024-03-08T10:36:22;21.80;;;19.80;;
61741;SDS011;47650;49.848;9.620;2024-03-08T10:38:49;19.52;;;17.52;;
61741;SDS011;47650;49.848;9.620;2024-03-08T10:41:18;19.90;;;18.00;;
61741;SDS011;47650;49.848;9.620;2024-03-08T10:46:57;17.20;;;15.60;;
61741;SDS011;47650;49.848;9.620;2024-03-08T10:49:31;18.90;;;17.13;;
61741;SDS011;47650;49.848;9.620;2024-03-08T10:52:23;20.02;;;18.13;;
61741;SDS011;47650;49.848;9.620;2024-03-08T10:54:48;19.55;;;17.70;;
61741;SDS011;47650;49.848;9.620;2024-03-08T10:57:18;18.40;;;16.73;;
61741;SDS011;47650;49.848;9.620;2024-03-08T10:59:45;18.77;;;17.13;;
61741;SDS011;47650;49.848;9.620;2024-03-08T11:02:15;18.00;;;16.38;;
61741;SDS011;47650;49.848;9.620;2024-03-08T11:04:50;18.50;;;16.75;;
61741;SDS011;47650;49.848;9.620;2024-03-08T11:07:22;18.33;;;16.52;;
61741;SDS011;47650;49.848;9.620;2024-03-08T11:09:48;18.30;;;16.50;;
61741;SDS011;47650;49.848;9.620;2024-03-08T11:12:18;17.00;;;15.35;;
61741;SDS011;47650;49.848;9.620;2024-03-08T11:14:53;18.73;;;17.02;;
61741;SDS011;47650;49.848;9.620;2024-03-08T11:19:57;19.27;;;17.58;;
61741;SDS011;47650;49.848;9.620;2024-03-08T11:22:31;17.73;;;16.08;;
61741;SDS011;47650;49.848;9.620;2024-03-08T11:24:58;18.92;;;17.13;;
61741;SDS011;47650;49.848;9.620;2024-03-08T11:27:29;17.75;;;16.00;;
61741;SDS011;47650;49.848;9.620;2024-03-08T11:29:59;17.38;;;15.68;;
61741;SDS011;47650;49.848;9.620;2024-03-08T11:32:35;18.25;;;16.58;;
61741;SDS011;47650;49.848;9.620;2024-03-08T11:35:01;19.00;;;17.20;;
61741;SDS011;47650;49.848;9.620;2024-03-08T11:37:33;18.38;;;16.40;;
61741;SDS011;47650;49.848;9.620;2024-03-08T11:40:00;18.17;;;16.58;;
61741;SDS011;47650;49.848;9.620;2024-03-08T11:42:40;18.98;;;17.17;;
61741;SDS011;47650;49.848;9.620;2024-03-08T11:45:08;19.40;;;17.63;;
61741;SDS011;47650;49.848;9.620;2024-03-08T11:47:36;17.45;;;15.85;;
61741;SDS011;47650;49.848;9.620;2024-03-08T11:50:04;16.90;;;15.40;;
61741;SDS011;47650;49.848;9.620;2024-03-08T11:52:35;16.52;;;15.13;;
61741;SDS011;47650;49.848;9.620;2024-03-08T11:55:03;17.55;;;15.95;;
61741;SDS011;47650;49.848;9.620;2024-03-08T11:57:30;17.27;;;15.75;;
61741;SDS011;47650;49.848;9.620;2024-03-08T11:59:57;17.50;;;16.00;;
61741;SDS011;47650;49.848;9.620;2024-03-08T12:02:26;17.17;;;15.57;;
61741;SDS011;47650;49.848;9.620;2024-03-08T12:04:56;16.67;;;15.27;;
61741;SDS011;47650;49.848;9.620;2024-03-08T12:07:25;17.88;;;16.42;;
61741;SDS011;47650;49.848;9.620;2024-03-08T12:12:44;16.58;;;14.88;;
61741;SDS011;47650;49.848;9.620;2024-03-08T12:15:12;15.73;;;14.40;;
61741;SDS011;47650;49.848;9.620;2024-03-08T12:17:41;16.35;;;14.90;;
61741;SDS011;47650;49.848;9.620;2024-03-08T12:20:28;18.17;;;16.50;;
61741;SDS011;47650;49.848;9.620;2024-03-08T12:22:55;16.08;;;14.68;;
61741;SDS011;47650;49.848;9.620;2024-03-08T12:25:27;16.77;;;15.32;;
61741;SDS011;47650;49.848;9.620;2024-03-08T12:27:56;16.83;;;15.40;;
61741;SDS011;47650;49.848;9.620;2024-03-08T12:30:25;16.10;;;14.70;;
61741;SDS011;47650;49.848;9.620;2024-03-08T12:32:55;16.15;;;14.75;;
61741;SDS011;47650;49.848;9.620;2024-03-08T12:35:23;16.88;;;15.48;;
61741;SDS011;47650;49.848;9.620;2024-03-08T12:37:50;17.30;;;15.60;;
61741;SDS011;47650;49.848;9.620;2024-03-08T12:40:24;16.42;;;14.73;;
61741;SDS011;47650;49.848;9.620;2024-03-08T12:42:58;18.02;;;16.40;;
61741;SDS011;47650;49.848;9.620;2024-03-08T12:45:34;16.98;;;15.57;;
61741;SDS011;47650;49.848;9.620;2024-03-08T12:50:28;16.15;;;14.75;;
61741;SDS011;47650;49.848;9.620;2024-03-08T12:52:55;16.25;;;14.85;;
61741;SDS011;47650;49.848;9.620;2024-03-08T12:55:22;16.55;;;15.13;;
61741;SDS011;47650;49.848;9.620;2024-03-08T12:57:48;15.50;;;14.20;;
61741;SDS011;47650;49.848;9.620;2024-03-08T13:00:14;16.17;;;14.88;;
61741;SDS011;47650;49.848;9.620;2024-03-08T13:02:44;15.93;;;14.63;;
61741;SDS011;47650;49.848;9.620;2024-03-08T13:05:13;15.35;;;14.07;;
61741;SDS011;47650;49.848;9.620;2024-03-08T13:07:39;15.73;;;14.23;;
61741;SDS011;47650;49.848;9.620;2024-03-08T13:10:05;15.43;;;14.13;;
61741;SDS011;47650;49.848;9.620;2024-03-08T13:12:32;15.50;;;14.20;;
61741;SDS011;47650;49.848;9.620;2024-03-08T13:15:02;15.80;;;14.40;;
61741;SDS011;47650;49.848;9.620;2024-03-08T13:17:30;15.73;;;14.43;;
61741;SDS011;47650;49.848;9.620;2024-03-08T13:19:55;14.87;;;13.37;;
61741;SDS011;47650;49.848;9.620;2024-03-08T13:22:22;16.00;;;14.60;;
61741;SDS011;47650;49.848;9.620;2024-03-08T13:24:49;15.60;;;14.30;;
61741;SDS011;47650;49.848;9.620;2024-03-08T13:27:16;15.25;;;13.75;;
61741;SDS011;47650;49.848;9.620;2024-03-08T13:29:50;15.10;;;13.80;;
61741;SDS011;47650;49.848;9.620;2024-03-08T13:32:22;15.02;;;13.82;;
61741;SDS011;47650;49.848;9.620;2024-03-08T13:34:49;16.17;;;14.77;;
61741;SDS011;47650;49.848;9.620;2024-03-08T13:37:15;15.90;;;14.02;;
61741;SDS011;47650;49.848;9.620;2024-03-08T13:39:41;13.73;;;12.43;;
61741;SDS011;47650;49.848;9.620;2024-03-08T13:42:11;18.15;;;14.38;;
61741;SDS011;47650;49.848;9.620;2024-03-08T13:44:38;14.95;;;13.68;;
61741;SDS011;47650;49.848;9.620;2024-03-08T13:47:13;14.27;;;13.00;;
61741;SDS011;47650;49.848;9.620;2024-03-08T13:49:42;13.45;;;12.35;;
61741;SDS011;47650;49.848;9.620;2024-03-08T13:52:14;15.52;;;14.02;;
61741;SDS011;47650;49.848;9.620;2024-03-08T13:54:41;14.27;;;13.07;;
61741;SDS011;47650;49.848;9.620;2024-03-08T13:57:14;14.45;;;13.05;;
61741;SDS011;47650;49.848;9.620;2024-03-08T13:59:39;14.27;;;12.98;;
61741;SDS011;47650;49.848;9.620;2024-03-08T14:02:05;14.25;;;13.05;;
61741;SDS011;47650;49.848;9.620;2024-03-08T14:04:30;14.90;;;13.60;;
61741;SDS011;47650;49.848;9.620;2024-03-08T14:06:56;13.40;;;12.30;;
61741;SDS011;47650;49.848;9.620;2024-03-08T14:09:24;13.45;;;12.10;;
61741;SDS011;47650;49.848;9.620;2024-03-08T14:11:50;13.73;;;12.52;;
61741;SDS011;47650;49.848;9.620;2024-03-08T14:14:20;13.80;;;12.60;;
61741;SDS011;47650;49.848;9.620;2024-03-08T14:16:49;13.52;;;12.32;;
61741;SDS011;47650;49.848;9.620;2024-03-08T14:19:19;13.07;;;11.87;;
61741;SDS011;47650;49.848;9.620;2024-03-08T14:21:44;12.38;;;11.38;;
61741;SDS011;47650;49.848;9.620;2024-03-08T14:24:10;12.48;;;11.27;;
61741;SDS011;47650;49.848;9.620;2024-03-08T14:26:36;11.37;;;10.37;;
61741;SDS011;47650;49.848;9.620;2024-03-08T14:29:03;12.93;;;11.82;;
61741;SDS011;47650;49.848;9.620;2024-03-08T14:31:30;12.27;;;11.10;;
61741;SDS011;47650;49.848;9.620;2024-03-08T14:33:55;11.30;;;10.20;;
61741;SDS011;47650;49.848;9.620;2024-03-08T14:36:24;11.57;;;10.48;;
61741;SDS011;47650;49.848;9.620;2024-03-08T14:38:51;10.13;;;9.25;;
61741;SDS011;47650;49.848;9.620;2024-03-08T14:41:17;11.05;;;10.05;;
61741;SDS011;47650;49.848;9.620;2024-03-08T14:43:43;11.95;;;10.95;;
61741;SDS011;47650;49.848;9.620;2024-03-08T14:46:14;11.40;;;10.45;;